sensor_id;sensor_type;location;lat;lon;timestamp;pressure;altitude;pressure_sealevel;temperature;humidity
38718;BME280;24468;52.128;9.278;2023-05-20T00:01:58;101587.63;;;13.21;100.00
38718;BME280;24468;52.128;9.278;2023-05-20T00:04:24;101587.38;;;13.05;100.00
38718;BME280;24468;52.128;9.278;2023-05-20T00:06:49;101602.38;;;12.65;100.00
38718;BME280;24468;52.128;9.278;2023-05-20T00:09:15;101597.72;;;12.44;100.00
38718;BME280;24468;52.128;9.278;2023-05-20T00:11:45;101595.97;;;12.16;100.00
38718;BME280;24468;52.128;9.278;2023-05-20T00:14:10;101593.38;;;12.13;100.00
38718;BME280;24468;52.128;9.278;2023-05-20T00:16:36;101583.91;;;12.00;100.00
38718;BME280;24468;52.128;9.278;2023-05-20T00:19:02;101580.00;;;12.09;100.00
38718;BME280;24468;52.128;9.278;2023-05-20T00:21:28;101579.69;;;11.63;100.00
38718;BME280;24468;52.128;9.278;2023-05-20T00:23:54;101581.63;;;11.88;100.00
38718;BME280;24468;52.128;9.278;2023-05-20T00:26:21;101584.22;;;11.91;100.00
38718;BME280;24468;52.128;9.278;2023-05-20T00:28:46;101588.75;;;11.90;100.00
38718;BME280;24468;52.128;9.278;2023-05-20T00:31:12;101596.25;;;11.80;100.00
38718;BME280;24468;52.128;9.278;2023-05-20T00:33:38;101592.16;;;11.95;100.00
38718;BME280;24468;52.128;9.278;2023-05-20T00:36:04;101593.06;;;11.96;100.00
38718;BME280;24468;52.128;9.278;2023-05-20T00:38:30;101584.59;;;12.07;100.00
38718;BME280;24468;52.128;9.278;2023-05-20T00:40:55;101586.41;;;12.06;100.00
38718;BME280;24468;52.128;9.278;2023-05-20T00:43:21;101595.25;;;11.83;100.00
38718;BME280;24468;52.128;9.278;2023-05-20T00:45:50;101589.63;;;11.91;100.00
38718;BME280;24468;52.128;9.278;2023-05-20T00:48:17;101597.53;;;11.69;100.00
38718;BME280;24468;52.128;9.278;2023-05-20T00:50:42;101590.22;;;11.71;100.00
38718;BME280;24468;52.128;9.278;2023-05-20T00:53:09;101588.47;;;11.70;100.00
38718;BME280;24468;52.128;9.278;2023-05-20T00:55:34;101590.94;;;11.77;100.00
38718;BME280;24468;52.128;9.278;2023-05-20T00:58:00;101595.19;;;11.85;100.00
38718;BME280;24468;52.128;9.278;2023-05-20T01:00:26;101595.19;;;11.86;100.00
38718;BME280;24468;52.128;9.278;2023-05-20T01:02:52;101589.56;;;11.92;100.00
38718;BME280;24468;52.128;9.278;2023-05-20T01:05:17;101589.38;;;11.98;100.00
38718;BME280;24468;52.128;9.278;2023-05-20T01:07:43;101585.94;;;11.93;100.00
38718;BME280;24468;52.128;9.278;2023-05-20T01:10:09;101588.06;;;12.10;100.00
38718;BME280;24468;52.128;9.278;2023-05-20T01:12:42;101584.94;;;12.22;100.00
38718;BME280;24468;52.128;9.278;2023-05-20T01:15:12;101582.91;;;12.29;100.00
38718;BME280;24468;52.128;9.278;2023-05-20T01:17:45;101579.25;;;12.30;100.00
38718;BME280;24468;52.128;9.278;2023-05-20T01:23:38;101573.63;;;12.36;100.00
38718;BME280;24468;52.128;9.278;2023-05-20T01:26:04;101569.31;;;12.31;100.00
38718;BME280;24468;52.128;9.278;2023-05-20T01:28:40;101567.56;;;12.30;100.00
38718;BME280;24468;52.128;9.278;2023-05-20T01:31:19;101566.47;;;12.35;100.00
38718;BME280;24468;52.128;9.278;2023-05-20T01:33:45;101569.44;;;12.28;100.00
38718;BME280;24468;52.128;9.278;2023-05-20T01:36:14;101561.78;;;12.40;100.00
38718;BME280;24468;52.128;9.278;2023-05-20T01:38:40;101571.97;;;12.32;100.00
38718;BME280;24468;52.128;9.278;2023-05-20T01:41:06;101561.28;;;12.29;100.00
38718;BME280;24468;52.128;9.278;2023-05-20T01:43:33;101557.19;;;12.42;100.00
38718;BME280;24468;52.128;9.278;2023-05-20T01:45:59;101555.53;;;12.38;100.00
38718;BME280;24468;52.128;9.278;2023-05-20T01:48:27;101563.41;;;12.44;100.00
38718;BME280;24468;52.128;9.278;2023-05-20T01:50:52;101554.97;;;12.29;100.00
38718;BME280;24468;52.128;9.278;2023-05-20T01:53:18;101550.38;;;12.31;100.00
38718;BME280;24468;52.128;9.278;2023-05-20T01:55:43;101555.41;;;12.41;100.00
38718;BME280;24468;52.128;9.278;2023-05-20T01:58:09;101551.88;;;12.39;100.00
38718;BME280;24468;52.128;9.278;2023-05-20T02:00:34;101554.31;;;12.47;100.00
38718;BME280;24468;52.128;9.278;2023-05-20T02:03:00;101561.91;;;12.36;100.00
38718;BME280;24468;52.128;9.278;2023-05-20T02:05:28;101555.28;;;12.44;100.00
38718;BME280;24468;52.128;9.278;2023-05-20T02:07:53;101555.47;;;12.40;100.00
38718;BME280;24468;52.128;9.278;2023-05-20T02:10:19;101548.34;;;12.37;100.00
38718;BME280;24468;52.128;9.278;2023-05-20T02:12:45;101543.97;;;12.33;100.00
38718;BME280;24468;52.128;9.278;2023-05-20T02:15:12;101545.06;;;12.28;100.00
38718;BME280;24468;52.128;9.278;2023-05-20T02:17:37;101546.56;;;12.36;100.00
38718;BME280;24468;52.128;9.278;2023-05-20T02:20:05;101546.88;;;12.29;100.00
38718;BME280;24468;52.128;9.278;2023-05-20T02:22:35;101545.03;;;12.29;100.00
38718;BME280;24468;52.128;9.278;2023-05-20T02:25:01;101556.50;;;12.11;100.00
38718;BME280;24468;52.128;9.278;2023-05-20T02:27:26;101560.09;;;12.36;100.00
38718;BME280;24468;52.128;9.278;2023-05-20T02:29:52;101557.72;;;12.27;100.00
38718;BME280;24468;52.128;9.278;2023-05-20T02:32:17;101556.13;;;12.21;100.00
38718;BME280;24468;52.128;9.278;2023-05-20T02:34:44;101550.25;;;12.34;100.00
38718;BME280;24468;52.128;9.278;2023-05-20T02:37:10;101551.47;;;12.25;100.00
38718;BME280;24468;52.128;9.278;2023-05-20T02:39:36;101554.75;;;12.35;100.00
38718;BME280;24468;52.128;9.278;2023-05-20T02:42:01;101550.03;;;12.15;100.00
38718;BME280;24468;52.128;9.278;2023-05-20T02:44:27;101546.56;;;12.36;100.00
38718;BME280;24468;52.128;9.278;2023-05-20T02:46:52;101555.63;;;12.35;100.00
38718;BME280;24468;52.128;9.278;2023-05-20T02:49:18;101544.66;;;12.40;100.00
38718;BME280;24468;52.128;9.278;2023-05-20T02:51:43;101557.38;;;12.36;100.00
38718;BME280;24468;52.128;9.278;2023-05-20T02:54:09;101553.69;;;12.39;100.00
38718;BME280;24468;52.128;9.278;2023-05-20T02:56:35;101544.31;;;12.24;100.00
38718;BME280;24468;52.128;9.278;2023-05-20T02:59:00;101544.81;;;12.35;100.00
38718;BME280;24468;52.128;9.278;2023-05-20T03:01:27;101537.28;;;12.18;100.00
38718;BME280;24468;52.128;9.278;2023-05-20T03:03:53;101536.34;;;12.19;100.00
38718;BME280;24468;52.128;9.278;2023-05-20T03:06:19;101535.31;;;12.23;100.00
38718;BME280;24468;52.128;9.278;2023-05-20T03:08:44;101541.59;;;12.24;100.00
38718;BME280;24468;52.128;9.278;2023-05-20T03:11:10;101552.31;;;12.27;100.00
38718;BME280;24468;52.128;9.278;2023-05-20T03:13:36;101540.78;;;12.22;100.00
38718;BME280;24468;52.128;9.278;2023-05-20T03:16:01;101541.81;;;12.18;100.00
38718;BME280;24468;52.128;9.278;2023-05-20T03:18:27;101539.28;;;12.13;100.00
38718;BME280;24468;52.128;9.278;2023-05-20T03:20:52;101541.13;;;12.11;100.00
38718;BME280;24468;52.128;9.278;2023-05-20T03:23:18;101544.78;;;12.10;100.00
38718;BME280;24468;52.128;9.278;2023-05-20T03:25:44;101538.41;;;12.13;100.00
38718;BME280;24468;52.128;9.278;2023-05-20T03:28:10;101543.97;;;12.08;100.00
38718;BME280;24468;52.128;9.278;2023-05-20T03:30:36;101531.94;;;12.17;100.00
38718;BME280;24468;52.128;9.278;2023-05-20T03:33:02;101541.66;;;12.22;100.00
38718;BME280;24468;52.128;9.278;2023-05-20T03:35:28;101540.44;;;12.31;100.00
38718;BME280;24468;52.128;9.278;2023-05-20T03:37:54;101541.50;;;12.27;100.00
38718;BME280;24468;52.128;9.278;2023-05-20T03:40:20;101550.25;;;12.34;100.00
38718;BME280;24468;52.128;9.278;2023-05-20T03:42:45;101549.06;;;12.42;100.00
38718;BME280;24468;52.128;9.278;2023-05-20T03:45:11;101540.97;;;12.42;100.00
38718;BME280;24468;52.128;9.278;2023-05-20T03:47:37;101544.28;;;12.51;100.00
38718;BME280;24468;52.128;9.278;2023-05-20T03:50:03;101548.34;;;12.62;100.00
38718;BME280;24468;52.128;9.278;2023-05-20T03:52:28;101544.75;;;12.62;100.00
38718;BME280;24468;52.128;9.278;2023-05-20T03:54:54;101542.03;;;12.62;100.00
38718;BME280;24468;52.128;9.278;2023-05-20T03:57:20;101541.97;;;12.63;100.00
38718;BME280;24468;52.128;9.278;2023-05-20T03:59:45;101540.16;;;12.64;100.00
38718;BME280;24468;52.128;9.278;2023-05-20T04:02:11;101543.69;;;12.66;100.00
38718;BME280;24468;52.128;9.278;2023-05-20T04:04:36;101535.63;;;12.64;100.00
38718;BME280;24468;52.128;9.278;2023-05-20T04:07:02;101548.34;;;12.62;100.00
38718;BME280;24468;52.128;9.278;2023-05-20T04:09:29;101541.59;;;12.49;100.00
38718;BME280;24468;52.128;9.278;2023-05-20T04:11:55;101544.63;;;12.65;100.00
38718;BME280;24468;52.128;9.278;2023-05-20T04:14:21;101532.75;;;12.69;100.00
38718;BME280;24468;52.128;9.278;2023-05-20T04:16:46;101537.22;;;12.70;100.00
38718;BME280;24468;52.128;9.278;2023-05-20T04:19:12;101538.63;;;12.57;100.00
38718;BME280;24468;52.128;9.278;2023-05-20T04:21:38;101535.53;;;12.67;100.00
38718;BME280;24468;52.128;9.278;2023-05-20T04:24:04;101538.50;;;12.60;100.00
38718;BME280;24468;52.128;9.278;2023-05-20T04:26:30;101532.53;;;12.75;100.00
38718;BME280;24468;52.128;9.278;2023-05-20T04:28:55;101539.34;;;12.85;100.00
38718;BME280;24468;52.128;9.278;2023-05-20T04:31:23;101533.97;;;12.60;100.00
38718;BME280;24468;52.128;9.278;2023-05-20T04:33:52;101524.97;;;12.83;100.00
38718;BME280;24468;52.128;9.278;2023-05-20T04:36:18;101536.00;;;12.79;100.00
38718;BME280;24468;52.128;9.278;2023-05-20T04:38:43;101532.88;;;12.89;100.00
38718;BME280;24468;52.128;9.278;2023-05-20T04:41:09;101529.19;;;12.92;100.00
38718;BME280;24468;52.128;9.278;2023-05-20T04:43:35;101524.16;;;13.05;100.00
38718;BME280;24468;52.128;9.278;2023-05-20T04:46:03;101530.88;;;12.95;100.00
38718;BME280;24468;52.128;9.278;2023-05-20T04:48:32;101530.38;;;12.83;100.00
38718;BME280;24468;52.128;9.278;2023-05-20T04:50:58;101522.84;;;12.91;100.00
38718;BME280;24468;52.128;9.278;2023-05-20T04:53:23;101520.63;;;13.03;100.00
38718;BME280;24468;52.128;9.278;2023-05-20T04:55:53;101520.97;;;13.17;100.00
38718;BME280;24468;52.128;9.278;2023-05-20T04:58:19;101528.63;;;13.29;100.00
38718;BME280;24468;52.128;9.278;2023-05-20T05:00:44;101530.47;;;13.51;100.00
38718;BME280;24468;52.128;9.278;2023-05-20T05:03:11;101523.78;;;13.60;100.00
38718;BME280;24468;52.128;9.278;2023-05-20T05:05:37;101538.13;;;13.63;100.00
38718;BME280;24468;52.128;9.278;2023-05-20T05:08:08;101529.53;;;13.52;100.00
38718;BME280;24468;52.128;9.278;2023-05-20T05:10:34;101531.47;;;13.70;100.00
38718;BME280;24468;52.128;9.278;2023-05-20T05:13:00;101532.19;;;13.75;100.00
38718;BME280;24468;52.128;9.278;2023-05-20T05:15:26;101529.03;;;13.42;100.00
38718;BME280;24468;52.128;9.278;2023-05-20T05:17:52;101529.41;;;13.77;100.00
38718;BME280;24468;52.128;9.278;2023-05-20T05:20:18;101523.47;;;13.67;100.00
38718;BME280;24468;52.128;9.278;2023-05-20T05:22:44;101529.75;;;13.90;100.00
38718;BME280;24468;52.128;9.278;2023-05-20T05:25:10;101521.56;;;13.91;100.00
38718;BME280;24468;52.128;9.278;2023-05-20T05:27:36;101524.94;;;14.18;100.00
38718;BME280;24468;52.128;9.278;2023-05-20T05:30:04;101532.25;;;14.16;100.00
38718;BME280;24468;52.128;9.278;2023-05-20T05:32:30;101525.41;;;14.49;100.00
38718;BME280;24468;52.128;9.278;2023-05-20T05:34:55;101526.16;;;14.52;100.00
38718;BME280;24468;52.128;9.278;2023-05-20T05:37:21;101524.16;;;14.76;100.00
38718;BME280;24468;52.128;9.278;2023-05-20T05:39:47;101523.03;;;14.61;100.00
38718;BME280;24468;52.128;9.278;2023-05-20T05:42:12;101526.81;;;13.96;100.00
38718;BME280;24468;52.128;9.278;2023-05-20T05:44:38;101520.91;;;14.48;100.00
38718;BME280;24468;52.128;9.278;2023-05-20T05:47:04;101519.75;;;14.74;100.00
38718;BME280;24468;52.128;9.278;2023-05-20T05:49:31;101520.59;;;14.35;100.00
38718;BME280;24468;52.128;9.278;2023-05-20T05:51:57;101521.84;;;14.46;100.00
38718;BME280;24468;52.128;9.278;2023-05-20T05:54:22;101518.06;;;14.30;100.00
38718;BME280;24468;52.128;9.278;2023-05-20T05:56:50;101513.34;;;14.75;100.00
38718;BME280;24468;52.128;9.278;2023-05-20T05:59:16;101515.38;;;14.90;100.00
38718;BME280;24468;52.128;9.278;2023-05-20T06:01:41;101512.28;;;14.79;100.00
38718;BME280;24468;52.128;9.278;2023-05-20T06:04:07;101510.88;;;15.27;100.00
38718;BME280;24468;52.128;9.278;2023-05-20T06:06:32;101510.38;;;15.00;100.00
38718;BME280;24468;52.128;9.278;2023-05-20T06:08:58;101513.91;;;15.02;100.00
38718;BME280;24468;52.128;9.278;2023-05-20T06:11:23;101518.41;;;15.03;100.00
38718;BME280;24468;52.128;9.278;2023-05-20T06:13:50;101515.38;;;14.90;100.00
38718;BME280;24468;52.128;9.278;2023-05-20T06:16:16;101508.69;;;15.16;100.00
38718;BME280;24468;52.128;9.278;2023-05-20T06:18:41;101512.78;;;15.44;100.00
38718;BME280;24468;52.128;9.278;2023-05-20T06:21:07;101509.63;;;15.34;100.00
38718;BME280;24468;52.128;9.278;2023-05-20T06:23:33;101511.16;;;15.59;100.00
38718;BME280;24468;52.128;9.278;2023-05-20T06:25:59;101505.38;;;15.47;100.00
38718;BME280;24468;52.128;9.278;2023-05-20T06:28:26;101510.97;;;15.44;100.00
38718;BME280;24468;52.128;9.278;2023-05-20T06:30:53;101510.72;;;15.30;100.00
38718;BME280;24468;52.128;9.278;2023-05-20T06:33:21;101507.97;;;15.12;100.00
38718;BME280;24468;52.128;9.278;2023-05-20T06:35:50;101500.97;;;15.45;100.00
38718;BME280;24468;52.128;9.278;2023-05-20T06:38:16;101506.03;;;15.52;100.00
38718;BME280;24468;52.128;9.278;2023-05-20T06:40:42;101500.09;;;15.81;100.00
38718;BME280;24468;52.128;9.278;2023-05-20T06:43:07;101502.50;;;15.50;100.00
38718;BME280;24468;52.128;9.278;2023-05-20T06:45:33;101486.41;;;15.27;100.00
38718;BME280;24468;52.128;9.278;2023-05-20T06:47:58;101497.53;;;15.22;100.00
38718;BME280;24468;52.128;9.278;2023-05-20T06:50:24;101502.13;;;15.58;100.00
38718;BME280;24468;52.128;9.278;2023-05-20T06:52:50;101501.44;;;15.17;100.00
38718;BME280;24468;52.128;9.278;2023-05-20T06:55:15;101506.94;;;15.15;100.00
38718;BME280;24468;52.128;9.278;2023-05-20T06:57:41;101487.53;;;15.23;100.00
38718;BME280;24468;52.128;9.278;2023-05-20T07:00:07;101491.78;;;15.47;100.00
38718;BME280;24468;52.128;9.278;2023-05-20T07:02:33;101478.16;;;15.47;100.00
38718;BME280;24468;52.128;9.278;2023-05-20T07:04:59;101472.19;;;15.58;100.00
38718;BME280;24468;52.128;9.278;2023-05-20T07:07:24;101478.84;;;15.33;100.00
38718;BME280;24468;52.128;9.278;2023-05-20T07:09:53;101477.84;;;15.53;100.00
38718;BME280;24468;52.128;9.278;2023-05-20T07:12:18;101478.09;;;15.30;100.00
38718;BME280;24468;52.128;9.278;2023-05-20T07:14:44;101471.44;;;15.54;100.00
38718;BME280;24468;52.128;9.278;2023-05-20T07:17:10;101472.03;;;15.61;100.00
38718;BME280;24468;52.128;9.278;2023-05-20T07:19:35;101476.50;;;15.62;100.00
38718;BME280;24468;52.128;9.278;2023-05-20T07:22:01;101479.75;;;15.88;100.00
38718;BME280;24468;52.128;9.278;2023-05-20T07:24:26;101472.56;;;15.50;100.00
38718;BME280;24468;52.128;9.278;2023-05-20T07:26:52;101474.16;;;15.73;100.00
38718;BME280;24468;52.128;9.278;2023-05-20T07:29:17;101478.44;;;15.96;100.00
38718;BME280;24468;52.128;9.278;2023-05-20T07:31:43;101472.97;;;15.96;100.00
38718;BME280;24468;52.128;9.278;2023-05-20T07:34:09;101468.88;;;16.22;100.00
38718;BME280;24468;52.128;9.278;2023-05-20T07:36:34;101474.56;;;16.00;100.00
38718;BME280;24468;52.128;9.278;2023-05-20T07:39:00;101461.03;;;16.16;100.00
38718;BME280;24468;52.128;9.278;2023-05-20T07:41:26;101467.47;;;15.62;100.00
38718;BME280;24468;52.128;9.278;2023-05-20T07:43:51;101472.41;;;15.90;100.00
38718;BME280;24468;52.128;9.278;2023-05-20T07:46:17;101462.00;;;16.15;100.00
38718;BME280;24468;52.128;9.278;2023-05-20T07:48:42;101455.75;;;16.13;100.00
38718;BME280;24468;52.128;9.278;2023-05-20T07:51:09;101457.28;;;16.02;100.00
38718;BME280;24468;52.128;9.278;2023-05-20T07:53:36;101457.94;;;16.40;100.00
38718;BME280;24468;52.128;9.278;2023-05-20T07:56:02;101451.88;;;16.68;100.00
38718;BME280;24468;52.128;9.278;2023-05-20T07:58:27;101464.06;;;16.61;100.00
38718;BME280;24468;52.128;9.278;2023-05-20T08:00:53;101457.81;;;16.26;100.00
38718;BME280;24468;52.128;9.278;2023-05-20T08:03:18;101460.84;;;16.37;100.00
38718;BME280;24468;52.128;9.278;2023-05-20T08:05:46;101450.63;;;16.25;100.00
38718;BME280;24468;52.128;9.278;2023-05-20T08:08:12;101458.31;;;16.16;100.00
38718;BME280;24468;52.128;9.278;2023-05-20T08:10:37;101456.94;;;16.25;100.00
38718;BME280;24468;52.128;9.278;2023-05-20T08:13:03;101450.16;;;15.99;100.00
38718;BME280;24468;52.128;9.278;2023-05-20T08:15:28;101452.72;;;16.53;100.00
38718;BME280;24468;52.128;9.278;2023-05-20T08:17:54;101442.97;;;16.49;100.00
38718;BME280;24468;52.128;9.278;2023-05-20T08:20:19;101448.66;;;16.44;100.00
38718;BME280;24468;52.128;9.278;2023-05-20T08:22:45;101447.69;;;16.78;100.00
38718;BME280;24468;52.128;9.278;2023-05-20T08:25:11;101448.75;;;16.92;100.00
38718;BME280;24468;52.128;9.278;2023-05-20T08:27:37;101451.41;;;16.93;100.00
38718;BME280;24468;52.128;9.278;2023-05-20T08:30:04;101447.25;;;16.86;100.00
38718;BME280;24468;52.128;9.278;2023-05-20T08:32:31;101445.63;;;17.31;100.00
38718;BME280;24468;52.128;9.278;2023-05-20T08:34:56;101444.75;;;16.99;100.00
38718;BME280;24468;52.128;9.278;2023-05-20T08:37:22;101440.69;;;17.22;100.00
38718;BME280;24468;52.128;9.278;2023-05-20T08:39:47;101443.34;;;17.23;100.00
38718;BME280;24468;52.128;9.278;2023-05-20T08:42:14;101440.13;;;16.83;100.00
38718;BME280;24468;52.128;9.278;2023-05-20T08:44:43;101450.44;;;17.10;100.00
38718;BME280;24468;52.128;9.278;2023-05-20T08:47:11;101441.03;;;17.16;100.00
38718;BME280;24468;52.128;9.278;2023-05-20T08:49:37;101444.25;;;17.54;100.00
38718;BME280;24468;52.128;9.278;2023-05-20T08:52:03;101434.00;;;16.96;100.00
38718;BME280;24468;52.128;9.278;2023-05-20T08:54:44;101432.41;;;17.39;100.00
38718;BME280;24468;52.128;9.278;2023-05-20T08:57:11;101435.81;;;17.43;100.00
38718;BME280;24468;52.128;9.278;2023-05-20T08:59:41;101430.38;;;17.11;100.00
38718;BME280;24468;52.128;9.278;2023-05-20T09:02:08;101442.00;;;16.99;100.00
38718;BME280;24468;52.128;9.278;2023-05-20T09:04:33;101442.44;;;16.91;100.00
38718;BME280;24468;52.128;9.278;2023-05-20T09:06:59;101437.63;;;17.28;100.00
38718;BME280;24468;52.128;9.278;2023-05-20T09:09:24;101432.69;;;17.19;100.00
38718;BME280;24468;52.128;9.278;2023-05-20T09:11:50;101438.72;;;16.76;100.00
38718;BME280;24468;52.128;9.278;2023-05-20T09:14:16;101441.13;;;16.82;100.00
38718;BME280;24468;52.128;9.278;2023-05-20T09:16:41;101435.09;;;16.60;100.00
38718;BME280;24468;52.128;9.278;2023-05-20T09:19:07;101443.88;;;16.65;100.00
38718;BME280;24468;52.128;9.278;2023-05-20T09:21:34;101443.84;;;16.82;100.00
38718;BME280;24468;52.128;9.278;2023-05-20T09:24:03;101435.88;;;16.62;100.00
38718;BME280;24468;52.128;9.278;2023-05-20T09:26:28;101434.81;;;16.98;100.00
38718;BME280;24468;52.128;9.278;2023-05-20T09:28:58;101433.41;;;17.06;100.00
38718;BME280;24468;52.128;9.278;2023-05-20T09:31:29;101424.75;;;16.82;100.00
38718;BME280;24468;52.128;9.278;2023-05-20T09:33:55;101424.16;;;17.09;100.00
38718;BME280;24468;52.128;9.278;2023-05-20T09:36:22;101421.50;;;16.76;100.00
38718;BME280;24468;52.128;9.278;2023-05-20T09:38:51;101426.34;;;16.86;100.00
38718;BME280;24468;52.128;9.278;2023-05-20T09:41:19;101427.91;;;17.38;100.00
38718;BME280;24468;52.128;9.278;2023-05-20T09:43:48;101420.31;;;17.59;100.00
38718;BME280;24468;52.128;9.278;2023-05-20T09:46:14;101423.03;;;16.64;100.00
38718;BME280;24468;52.128;9.278;2023-05-20T09:48:41;101415.06;;;17.40;100.00
38718;BME280;24468;52.128;9.278;2023-05-20T09:51:07;101425.38;;;16.87;100.00
38718;BME280;24468;52.128;9.278;2023-05-20T09:53:35;101419.84;;;16.56;100.00
38718;BME280;24468;52.128;9.278;2023-05-20T09:56:01;101416.34;;;17.65;100.00
38718;BME280;24468;52.128;9.278;2023-05-20T09:58:28;101417.47;;;18.21;100.00
38718;BME280;24468;52.128;9.278;2023-05-20T10:00:54;101401.75;;;18.10;100.00
38718;BME280;24468;52.128;9.278;2023-05-20T10:03:23;101415.63;;;18.21;100.00
38718;BME280;24468;52.128;9.278;2023-05-20T10:12:01;101420.47;;;17.72;100.00
38718;BME280;24468;52.128;9.278;2023-05-20T10:17:20;101412.72;;;17.34;100.00
38718;BME280;24468;52.128;9.278;2023-05-20T10:19:47;101416.50;;;17.31;100.00
38718;BME280;24468;52.128;9.278;2023-05-20T10:22:14;101412.72;;;17.34;100.00
38718;BME280;24468;52.128;9.278;2023-05-20T10:24:43;101410.41;;;17.42;100.00
38718;BME280;24468;52.128;9.278;2023-05-20T10:27:17;101405.38;;;17.50;100.00
38718;BME280;24468;52.128;9.278;2023-05-20T10:29:54;101405.75;;;17.74;100.00
38718;BME280;24468;52.128;9.278;2023-05-20T10:32:31;101397.28;;;17.79;100.00
38718;BME280;24468;52.128;9.278;2023-05-20T10:35:07;101394.19;;;17.09;100.00
38718;BME280;24468;52.128;9.278;2023-05-20T10:37:42;101397.66;;;17.27;100.00
38718;BME280;24468;52.128;9.278;2023-05-20T10:40:15;101395.56;;;17.16;100.00
38718;BME280;24468;52.128;9.278;2023-05-20T10:42:42;101406.69;;;17.73;100.00
38718;BME280;24468;52.128;9.278;2023-05-20T10:45:08;101405.25;;;18.12;100.00
38718;BME280;24468;52.128;9.278;2023-05-20T10:47:35;101397.06;;;17.52;100.00
38718;BME280;24468;52.128;9.278;2023-05-20T10:50:01;101393.88;;;17.14;100.00
38718;BME280;24468;52.128;9.278;2023-05-20T10:52:35;101393.72;;;17.93;100.00
38718;BME280;24468;52.128;9.278;2023-05-20T10:55:02;101387.19;;;17.65;100.00
38718;BME280;24468;52.128;9.278;2023-05-20T10:57:29;101379.19;;;17.62;100.00
38718;BME280;24468;52.128;9.278;2023-05-20T10:59:57;101382.38;;;17.54;100.00
38718;BME280;24468;52.128;9.278;2023-05-20T11:02:23;101373.72;;;17.92;100.00
38718;BME280;24468;52.128;9.278;2023-05-20T11:04:55;101376.63;;;17.29;100.00
38718;BME280;24468;52.128;9.278;2023-05-20T11:07:30;101361.44;;;17.85;100.00
38718;BME280;24468;52.128;9.278;2023-05-20T11:09:57;101374.25;;;17.99;100.00
38718;BME280;24468;52.128;9.278;2023-05-20T11:12:24;101371.66;;;17.82;97.92
38718;BME280;24468;52.128;9.278;2023-05-20T11:14:50;101371.72;;;18.10;97.48
38718;BME280;24468;52.128;9.278;2023-05-20T11:17:18;101366.63;;;17.90;97.39
38718;BME280;24468;52.128;9.278;2023-05-20T11:19:45;101365.94;;;17.86;97.36
38718;BME280;24468;52.128;9.278;2023-05-20T11:22:11;101367.13;;;17.66;98.27
38718;BME280;24468;52.128;9.278;2023-05-20T11:24:36;101358.16;;;18.23;95.91
38718;BME280;24468;52.128;9.278;2023-05-20T11:27:02;101344.66;;;18.63;94.64
38718;BME280;24468;52.128;9.278;2023-05-20T11:29:28;101352.22;;;18.31;96.58
38718;BME280;24468;52.128;9.278;2023-05-20T11:31:59;101350.22;;;18.61;95.51
38718;BME280;24468;52.128;9.278;2023-05-20T11:34:25;101351.44;;;18.14;95.28
38718;BME280;24468;52.128;9.278;2023-05-20T11:36:58;101351.88;;;18.64;92.14
38718;BME280;24468;52.128;9.278;2023-05-20T11:39:24;101346.56;;;19.17;91.04
38718;BME280;24468;52.128;9.278;2023-05-20T11:41:51;101337.78;;;18.70;92.25
38718;BME280;24468;52.128;9.278;2023-05-20T11:44:19;101335.38;;;17.80;98.73
38718;BME280;24468;52.128;9.278;2023-05-20T11:46:47;101330.06;;;18.35;94.35
38718;BME280;24468;52.128;9.278;2023-05-20T11:49:16;101328.34;;;18.90;92.23
38718;BME280;24468;52.128;9.278;2023-05-20T11:51:42;101333.03;;;19.15;91.08
38718;BME280;24468;52.128;9.278;2023-05-20T11:54:09;101322.47;;;18.67;92.77
38718;BME280;24468;52.128;9.278;2023-05-20T11:56:39;101324.56;;;18.50;95.37
38718;BME280;24468;52.128;9.278;2023-05-20T11:59:08;101323.38;;;19.09;93.61
38718;BME280;24468;52.128;9.278;2023-05-20T12:01:38;101325.03;;;18.85;87.70
38718;BME280;24468;52.128;9.278;2023-05-20T12:04:11;101328.22;;;18.36;92.07
38718;BME280;24468;52.128;9.278;2023-05-20T12:06:40;101319.25;;;18.90;89.27
38718;BME280;24468;52.128;9.278;2023-05-20T12:09:07;101326.84;;;18.99;90.13
38718;BME280;24468;52.128;9.278;2023-05-20T12:11:34;101315.25;;;19.08;88.40
38718;BME280;24468;52.128;9.278;2023-05-20T12:14:01;101307.53;;;18.87;88.72
38718;BME280;24468;52.128;9.278;2023-05-20T12:16:27;101299.47;;;19.26;88.36
38718;BME280;24468;52.128;9.278;2023-05-20T12:18:53;101304.84;;;19.40;88.79
38718;BME280;24468;52.128;9.278;2023-05-20T12:21:18;101305.78;;;18.72;88.25
38718;BME280;24468;52.128;9.278;2023-05-20T12:23:44;101304.03;;;18.85;90.67
38718;BME280;24468;52.128;9.278;2023-05-20T12:26:09;101295.53;;;19.03;89.15
38718;BME280;24468;52.128;9.278;2023-05-20T12:28:35;101284.97;;;19.64;85.80
38718;BME280;24468;52.128;9.278;2023-05-20T12:31:00;101294.22;;;19.23;87.77
38718;BME280;24468;52.128;9.278;2023-05-20T12:33:26;101280.66;;;18.94;88.75
38718;BME280;24468;52.128;9.278;2023-05-20T12:35:52;101289.34;;;18.59;93.57
38718;BME280;24468;52.128;9.278;2023-05-20T12:38:18;101289.41;;;18.99;91.76
38718;BME280;24468;52.128;9.278;2023-05-20T12:40:43;101282.16;;;18.85;91.20
38718;BME280;24468;52.128;9.278;2023-05-20T12:43:09;101295.22;;;18.39;94.51
38718;BME280;24468;52.128;9.278;2023-05-20T12:45:34;101275.06;;;19.23;91.44
38718;BME280;24468;52.128;9.278;2023-05-20T12:48:00;101272.78;;;19.02;89.52
38718;BME280;24468;52.128;9.278;2023-05-20T12:50:26;101280.22;;;19.00;90.02